Time;durP1;ratioP1;P1;durP2;ratioP2;P2;SDS_P1;SDS_P2;PMS_P1;PMS_P2;Temp;Humidity;BMP_temperature;BMP_pressure;BME280_temperature;BME280_humidity;BME280_pressure;Samples;Min_cycle;Max_cycle;Signal;HPM_P1;HPM_P2
2022/10/15 00:00:07;;;;;;;2.70;1.50;;;16.90;99.90;;;;;;5114388;28;20039;-82
2022/10/15 00:02:32;;;;;;;2.15;1.38;;;17.00;99.90;;;;;;5114454;28;20062;-82
2022/10/15 00:04:58;;;;;;;1.77;1.67;;;17.00;99.90;;;;;;5114631;28;20056;-82
2022/10/15 00:07:24;;;;;;;2.35;1.48;;;17.00;99.90;;;;;;5114774;28;20020;-82
2022/10/15 00:09:50;;;;;;;2.67;1.65;;;17.10;99.90;;;;;;5114187;28;20043;-82
2022/10/15 00:12:15;;;;;;;5.38;1.50;;;17.00;99.90;;;;;;5114526;28;20059;-82
2022/10/15 00:14:41;;;;;;;2.10;1.42;;;17.00;99.90;;;;;;5114120;28;20114;-82
2022/10/15 00:17:07;;;;;;;2.03;1.85;;;17.00;99.90;;;;;;5114269;28;20475;-82
2022/10/15 00:19:32;;;;;;;1.90;1.50;;;17.00;99.90;;;;;;5114709;28;20039;-81
2022/10/15 00:21:58;;;;;;;2.80;1.65;;;17.00;99.90;;;;;;5114151;28;20030;-82
2022/10/15 00:24:24;;;;;;;1.75;1.63;;;17.10;99.90;;;;;;5114514;28;20048;-82
2022/10/15 00:26:49;;;;;;;1.70;1.60;;;17.10;99.90;;;;;;5114231;28;20034;-82
2022/10/15 00:29:15;;;;;;;1.85;1.60;;;17.00;99.90;;;;;;5095332;28;20071;-82
2022/10/15 00:31:41;;;;;;;2.00;1.70;;;17.10;99.90;;;;;;5113985;28;20089;-81
2022/10/15 00:34:06;;;;;;;2.33;1.70;;;17.10;99.90;;;;;;5113652;28;20019;-82
2022/10/15 00:36:34;;;;;;;4.95;1.70;;;17.10;99.90;;;;;;5113849;28;20052;-82
2022/10/15 00:39:01;;;;;;;2.97;1.60;;;17.10;99.90;;;;;;5113916;28;20102;-82
2022/10/15 00:41:31;;;;;;;2.03;1.70;;;17.20;99.90;;;;;;5113688;28;20511;-81
2022/10/15 00:43:58;;;;;;;2.10;1.60;;;17.20;99.90;;;;;;5113552;28;20024;-82
2022/10/15 00:46:40;;;;;;;1.65;1.55;;;17.20;99.90;;;;;;5113782;28;20057;-82
2022/10/15 00:49:26;;;;;;;1.70;1.42;;;17.10;99.90;;;;;;5113584;28;20373;-81
2022/10/15 00:51:55;;;;;;;1.75;1.65;;;17.20;99.90;;;;;;5113699;28;20028;-82
2022/10/15 00:54:22;;;;;;;2.85;1.50;;;17.30;99.90;;;;;;5113750;28;20023;-82
2022/10/15 00:56:49;;;;;;;3.28;1.50;;;17.30;99.90;;;;;;5113557;28;20384;-81
2022/10/15 00:59:17;;;;;;;3.25;1.50;;;17.20;99.90;;;;;;5113474;28;20026;-82
2022/10/15 01:01:43;;;;;;;3.05;1.40;;;17.30;99.90;;;;;;5113546;28;20027;-81
2022/10/15 01:04:10;;;;;;;1.95;1.55;;;17.20;99.90;;;;;;5097016;28;20480;-82
2022/10/15 01:06:36;;;;;;;3.25;1.50;;;17.20;99.90;;;;;;5093090;28;20046;-81
2022/10/15 01:09:03;;;;;;;3.72;1.60;;;17.10;99.90;;;;;;5092372;28;20110;-82
2022/10/15 01:11:55;;;;;;;1.70;1.60;;;17.00;99.90;;;;;;5093025;28;20070;-82
2022/10/15 01:14:44;;;;;;;2.88;1.50;;;17.10;99.90;;;;;;5088935;28;20524;-82
2022/10/15 01:17:47;;;;;;;2.58;1.50;;;16.70;99.90;;;;;;5092864;28;20020;-82
2022/10/15 01:20:52;;;;;;;3.67;1.30;;;16.60;99.90;;;;;;5092280;28;20437;-82
2022/10/15 01:23:36;;;;;;;2.00;1.60;;;16.60;99.90;;;;;;5093170;28;20107;-81
2022/10/15 01:26:51;;;;;;;3.58;1.50;;;16.60;99.90;;;;;;5092407;28;20016;-82
2022/10/15 01:29:46;;;;;;;1.92;1.50;;;16.50;99.90;;;;;;5010799;28;20034;-81
2022/10/15 01:32:33;;;;;;;1.83;1.60;;;16.50;99.90;;;;;;5025685;28;20073;-82
2022/10/15 01:35:17;;;;;;;2.78;1.67;;;16.40;99.90;;;;;;5030258;28;20029;-82
2022/10/15 01:37:55;;;;;;;2.08;1.50;;;16.40;99.90;;;;;;5029965;28;20064;-82
2022/10/15 01:40:53;;;;;;;2.45;1.50;;;16.30;99.90;;;;;;5029880;28;20595;-82
2022/10/15 01:43:32;;;;;;;4.35;1.80;;;16.40;99.90;;;;;;5019906;28;20496;-82
2022/10/15 01:46:04;;;;;;;3.80;1.58;;;16.30;99.90;;;;;;5029738;28;20629;-82
2022/10/15 01:48:33;;;;;;;2.55;1.58;;;16.20;99.90;;;;;;5030006;28;20423;-82
2022/10/15 01:51:02;;;;;;;4.35;1.60;;;16.20;99.90;;;;;;5029800;28;20484;-81
2022/10/15 01:53:28;;;;;;;3.35;1.58;;;16.20;99.90;;;;;;5030056;28;20034;-82
2022/10/15 01:56:01;;;;;;;3.55;1.70;;;16.20;99.90;;;;;;5030063;28;20030;-81
2022/10/15 01:58:29;;;;;;;1.63;1.50;;;16.10;99.90;;;;;;5029836;28;20169;-81
2022/10/15 02:00:57;;;;;;;2.33;1.60;;;16.00;99.90;;;;;;5030252;28;20087;-82
2022/10/15 02:03:23;;;;;;;2.28;1.60;;;16.10;99.90;;;;;;5029389;28;20032;-82
2022/10/15 02:06:08;;;;;;;3.88;1.40;;;16.20;99.90;;;;;;5060437;28;20097;-82
2022/10/15 02:08:55;;;;;;;2.05;1.50;;;16.20;99.90;;;;;;5092363;28;20400;-82
2022/10/15 02:11:21;;;;;;;1.55;1.20;;;16.10;99.90;;;;;;5091692;28;20113;-82
2022/10/15 02:14:11;;;;;;;1.58;1.40;;;16.10;99.90;;;;;;5092165;28;20024;-82
2022/10/15 02:16:46;;;;;;;2.78;1.60;;;16.20;99.90;;;;;;5092024;28;20032;-82
2022/10/15 02:19:21;;;;;;;2.85;1.33;;;16.40;99.90;;;;;;5092001;28;20043;-82
2022/10/15 02:21:58;;;;;;;1.38;1.27;;;16.10;99.90;;;;;;5073938;28;20395;-82
2022/10/15 02:24:26;;;;;;;2.45;1.20;;;16.00;99.90;;;;;;5091607;28;20070;-82
2022/10/15 02:26:55;;;;;;;2.83;1.60;;;16.00;99.90;;;;;;5092323;28;20411;-82
2022/10/15 02:29:25;;;;;;;2.08;1.42;;;16.10;99.90;;;;;;5092029;28;20074;-81
2022/10/15 02:31:52;;;;;;;1.73;1.40;;;15.90;99.90;;;;;;5104136;28;20106;-83
2022/10/15 02:34:21;;;;;;;2.08;1.50;;;15.90;99.90;;;;;;5112277;28;20024;-82
2022/10/15 02:36:46;;;;;;;2.15;1.40;;;16.00;99.90;;;;;;5112562;28;20384;-82
2022/10/15 02:39:16;;;;;;;2.28;1.40;;;16.00;99.90;;;;;;5111474;28;20028;-82
2022/10/15 02:41:42;;;;;;;2.80;1.60;;;15.90;99.90;;;;;;5112515;28;20028;-82
2022/10/15 02:44:08;;;;;;;2.13;1.40;;;15.80;99.90;;;;;;5112220;28;20027;-82
2022/10/15 02:46:34;;;;;;;3.47;1.42;;;15.80;99.90;;;;;;5112220;28;20471;-82
2022/10/15 02:48:59;;;;;;;1.77;1.50;;;15.80;99.90;;;;;;5094044;28;20076;-81
2022/10/15 02:51:25;;;;;;;1.77;1.30;;;15.80;99.90;;;;;;5112233;28;20027;-82
2022/10/15 02:53:51;;;;;;;1.58;1.48;;;15.80;99.90;;;;;;5111765;28;20408;-82
2022/10/15 02:56:16;;;;;;;1.65;1.42;;;16.00;99.90;;;;;;5112366;28;20098;-81
2022/10/15 02:58:42;;;;;;;3.08;1.70;;;15.90;99.90;;;;;;5114600;28;20027;-82
2022/10/15 03:01:08;;;;;;;2.60;1.58;;;15.80;99.90;;;;;;5115934;28;20540;-82
2022/10/15 03:03:33;;;;;;;3.33;1.73;;;15.70;99.90;;;;;;5116067;28;20027;-82
2022/10/15 03:05:59;;;;;;;2.80;1.77;;;15.70;99.90;;;;;;5115908;28;20467;-82
2022/10/15 03:08:24;;;;;;;3.28;1.70;;;15.70;99.90;;;;;;5115370;28;20036;-82
2022/10/15 03:10:50;;;;;;;3.00;1.98;;;15.70;99.90;;;;;;5115900;28;20048;-82
2022/10/15 03:13:16;;;;;;;3.25;1.65;;;15.70;99.90;;;;;;5115616;28;20035;-82
2022/10/15 03:15:41;;;;;;;3.40;1.60;;;15.70;99.90;;;;;;5115496;28;20027;-82
2022/10/15 03:18:07;;;;;;;2.08;1.30;;;15.70;99.90;;;;;;5115542;28;20492;-82
2022/10/15 03:20:33;;;;;;;2.60;1.52;;;15.70;99.90;;;;;;5115808;28;20031;-82
2022/10/15 03:22:58;;;;;;;1.80;1.20;;;15.60;99.90;;;;;;5096743;28;20464;-82
2022/10/15 03:25:24;;;;;;;1.77;1.40;;;15.70;99.90;;;;;;5115457;28;20031;-82
2022/10/15 03:27:51;;;;;;;2.67;1.30;;;15.70;99.90;;;;;;5115397;28;20027;-81
2022/10/15 03:30:18;;;;;;;3.75;1.80;;;15.70;99.90;;;;;;5115068;28;20487;-82
2022/10/15 03:32:43;;;;;;;3.42;1.80;;;15.60;99.90;;;;;;5115170;28;20028;-82
2022/10/15 03:35:09;;;;;;;2.03;1.30;;;15.50;99.90;;;;;;5115540;28;20380;-81
2022/10/15 03:37:35;;;;;;;2.55;1.20;;;15.50;99.90;;;;;;5114800;28;20054;-81
2022/10/15 03:40:00;;;;;;;3.28;1.60;;;15.50;99.90;;;;;;5115176;28;20031;-82
2022/10/15 03:42:26;;;;;;;1.65;1.45;;;15.60;99.90;;;;;;5115015;28;20030;-82
2022/10/15 03:44:51;;;;;;;4.75;1.80;;;15.40;99.90;;;;;;5096602;28;20072;-82
2022/10/15 03:47:17;;;;;;;2.13;1.60;;;15.10;99.90;;;;;;5114884;28;20081;-81
2022/10/15 03:49:43;;;;;;;4.88;1.50;;;15.10;99.90;;;;;;5115178;28;20054;-82
2022/10/15 03:52:08;;;;;;;3.88;1.60;;;15.10;99.90;;;;;;5114429;28;20030;-82
2022/10/15 03:54:34;;;;;;;3.08;1.45;;;15.00;99.90;;;;;;5114807;28;20024;-82
2022/10/15 03:57:00;;;;;;;2.65;1.60;;;15.00;99.90;;;;;;5114639;28;20388;-82
2022/10/15 03:59:25;;;;;;;1.95;1.42;;;15.10;99.90;;;;;;5114725;28;20084;-82
2022/10/15 04:01:51;;;;;;;2.50;1.20;;;15.20;99.90;;;;;;5114514;28;20035;-82
2022/10/15 04:04:17;;;;;;;1.40;1.30;;;15.30;99.90;;;;;;5114482;28;20041;-82
2022/10/15 04:06:46;;;;;;;2.65;1.40;;;15.30;99.90;;;;;;5114505;28;20424;-82
2022/10/15 04:09:12;;;;;;;2.47;1.40;;;15.30;99.90;;;;;;5113614;28;20042;-82
2022/10/15 04:11:37;;;;;;;1.40;1.30;;;15.40;99.90;;;;;;5114273;28;20044;-82
2022/10/15 04:14:04;;;;;;;3.08;1.30;;;15.40;99.90;;;;;;5114616;28;20107;-82
2022/10/15 04:16:30;;;;;;;3.20;1.50;;;15.40;99.90;;;;;;5114171;28;20031;-82
2022/10/15 04:18:57;;;;;;;1.50;1.30;;;15.40;99.90;;;;;;5114484;28;20031;-82
2022/10/15 04:21:23;;;;;;;3.00;1.50;;;15.40;99.90;;;;;;5113938;28;20054;-82
2022/10/15 04:23:49;;;;;;;3.50;1.45;;;15.40;99.90;;;;;;5114413;28;20065;-81
2022/10/15 04:26:14;;;;;;;2.58;1.30;;;15.30;99.90;;;;;;5114275;28;20031;-81
2022/10/15 04:28:40;;;;;;;1.50;1.40;;;15.50;99.90;;;;;;5114349;28;20415;-81
2022/10/15 04:31:06;;;;;;;2.08;1.40;;;15.50;99.90;;;;;;5113945;28;20028;-82
2022/10/15 04:33:32;;;;;;;3.83;1.50;;;15.10;99.90;;;;;;5114148;28;20038;-82
2022/10/15 04:35:59;;;;;;;3.17;1.25;;;15.30;99.90;;;;;;5114027;28;20377;-82
2022/10/15 04:38:25;;;;;;;2.95;1.40;;;15.00;99.90;;;;;;5113847;28;20015;-82
2022/10/15 04:40:59;;;;;;;2.05;1.45;;;14.90;99.90;;;;;;5114024;28;20030;-82
2022/10/15 04:43:24;;;;;;;4.05;1.60;;;14.90;99.90;;;;;;5113853;28;20043;-82
2022/10/15 04:45:50;;;;;;;1.95;1.40;;;14.90;99.90;;;;;;5113767;28;20087;-82
2022/10/15 04:48:16;;;;;;;2.55;1.50;;;14.80;99.90;;;;;;5113334;28;20031;-82
2022/10/15 04:50:41;;;;;;;3.17;1.52;;;14.90;99.90;;;;;;5112899;28;20028;-82
2022/10/15 04:53:07;;;;;;;1.40;1.30;;;14.90;99.90;;;;;;5113356;28;20034;-86
2022/10/15 04:55:33;;;;;;;1.60;1.30;;;14.90;99.90;;;;;;5114581;28;20027;-84
2022/10/15 04:57:58;;;;;;;3.92;1.50;;;15.10;94.00;;;;;;5113341;28;20126;-85
2022/10/15 05:00:24;;;;;;;3.47;1.25;;;15.20;99.90;;;;;;5113587;28;20481;-85
2022/10/15 05:02:49;;;;;;;2.50;1.73;;;15.20;99.90;;;;;;5108647;28;20391;-85
2022/10/15 05:05:15;;;;;;;7.20;1.80;;;15.30;99.90;;;;;;5092237;28;20543;-85
2022/10/15 05:07:41;;;;;;;1.88;1.30;;;15.50;99.90;;;;;;5092909;28;20024;-85
2022/10/15 05:10:07;;;;;;;2.17;1.60;;;15.40;99.90;;;;;;5084978;28;20130;-85
2022/10/15 05:12:32;;;;;;;1.40;1.30;;;15.30;99.90;;;;;;5113339;28;20457;-85
2022/10/15 05:14:58;;;;;;;3.35;1.60;;;15.50;99.90;;;;;;5113262;28;20024;-85
2022/10/15 05:17:23;;;;;;;2.53;1.40;;;15.10;99.90;;;;;;5113100;28;20027;-85
2022/10/15 05:19:49;;;;;;;3.50;1.55;;;15.10;99.90;;;;;;5113290;28;20031;-85
2022/10/15 05:22:14;;;;;;;2.60;1.50;;;15.10;99.90;;;;;;5113092;28;20026;-84
2022/10/15 05:24:40;;;;;;;1.95;1.30;;;15.30;99.90;;;;;;5113202;28;20091;-84
2022/10/15 05:27:06;;;;;;;2.35;1.42;;;15.10;99.90;;;;;;5112901;28;20027;-85
2022/10/15 05:29:32;;;;;;;2.53;1.40;;;15.20;99.90;;;;;;5112972;28;20024;-85
2022/10/15 05:31:58;;;;;;;2.28;1.20;;;15.10;99.90;;;;;;5113168;28;20035;-85
2022/10/15 05:34:25;;;;;;;2.60;1.27;;;15.10;99.90;;;;;;5112698;28;20038;-85
2022/10/15 05:36:51;;;;;;;3.35;1.70;;;15.10;99.90;;;;;;5113049;28;20030;-85
2022/10/15 05:39:16;;;;;;;2.05;1.67;;;15.30;99.90;;;;;;5112637;28;20024;-85
2022/10/15 05:41:42;;;;;;;3.67;2.10;;;15.00;99.90;;;;;;5112669;28;20073;-85
2022/10/15 05:44:08;;;;;;;2.10;1.52;;;15.00;99.90;;;;;;5113194;28;20030;-85
2022/10/15 05:46:33;;;;;;;3.13;1.88;;;15.10;99.90;;;;;;5112820;28;20523;-85
2022/10/15 05:48:59;;;;;;;2.22;1.55;;;14.90;99.90;;;;;;5112110;28;20159;-85
2022/10/15 05:51:26;;;;;;;2.35;1.45;;;15.00;99.90;;;;;;5113044;28;20107;-85
2022/10/15 05:53:53;;;;;;;1.80;1.40;;;15.00;99.90;;;;;;5112482;28;20407;-85
2022/10/15 05:56:18;;;;;;;3.45;1.85;;;15.00;99.90;;;;;;5112642;28;20094;-85
2022/10/15 05:58:44;;;;;;;4.45;1.75;;;15.20;99.90;;;;;;5112618;28;20023;-85
2022/10/15 06:01:11;;;;;;;1.80;1.35;;;15.30;99.90;;;;;;5112299;28;20384;-85
2022/10/15 06:03:38;;;;;;;3.00;1.50;;;15.40;99.90;;;;;;5100740;28;20028;-85
2022/10/15 06:06:04;;;;;;;5.40;1.42;;;15.10;99.90;;;;;;5092154;28;20028;-85
2022/10/15 06:08:30;;;;;;;3.63;1.40;;;15.10;99.90;;;;;;5091912;28;20560;-85
2022/10/15 06:11:02;;;;;;;1.80;1.52;;;15.30;99.90;;;;;;5092156;28;20052;-85
2022/10/15 06:13:28;;;;;;;5.90;1.55;;;15.40;99.90;;;;;;5092167;28;20020;-85
2022/10/15 06:15:53;;;;;;;2.47;1.55;;;15.20;99.90;;;;;;5091718;28;20400;-86
2022/10/15 06:18:19;;;;;;;2.17;1.20;;;15.10;99.90;;;;;;5092015;28;20099;-86
2022/10/15 06:20:50;;;;;;;4.03;1.58;;;15.20;99.90;;;;;;5092417;28;20031;-85
2022/10/15 06:23:16;;;;;;;2.10;1.40;;;15.20;99.90;;;;;;5091858;28;20107;-85
2022/10/15 06:25:42;;;;;;;2.72;1.27;;;15.40;99.90;;;;;;5091918;28;20135;-85
2022/10/15 06:28:08;;;;;;;3.75;1.55;;;15.50;99.90;;;;;;5091847;28;20050;-85
2022/10/15 06:30:34;;;;;;;2.70;1.52;;;15.60;99.90;;;;;;5074693;28;20078;-85
2022/10/15 06:33:00;;;;;;;2.78;1.45;;;16.10;99.90;;;;;;5114120;28;20031;-85
2022/10/15 06:35:29;;;;;;;2.38;1.30;;;15.90;99.90;;;;;;5116252;28;20028;-85
2022/10/15 06:37:55;;;;;;;2.40;1.48;;;16.00;99.90;;;;;;5116303;28;20027;-85
2022/10/15 06:40:21;;;;;;;2.58;1.30;;;16.20;99.90;;;;;;5116138;28;20480;-85
2022/10/15 06:42:46;;;;;;;3.13;1.50;;;16.20;99.90;;;;;;5116241;28;20030;-85
2022/10/15 06:45:12;;;;;;;3.10;2.20;;;15.90;99.90;;;;;;5116094;28;20081;-85
2022/10/15 06:47:41;;;;;;;2.63;1.80;;;15.80;99.90;;;;;;5116110;28;20022;-85
2022/10/15 06:50:08;;;;;;;4.13;1.60;;;15.80;99.90;;;;;;5116066;28;20061;-85
2022/10/15 06:52:33;;;;;;;3.22;1.52;;;15.90;99.90;;;;;;5098460;28;20465;-85
2022/10/15 06:54:59;;;;;;;2.20;1.50;;;16.10;99.90;;;;;;5115964;28;20031;-85
2022/10/15 06:57:27;;;;;;;4.47;1.60;;;16.00;99.90;;;;;;5097719;28;20024;-85
2022/10/15 06:59:53;;;;;;;3.65;1.60;;;16.10;99.90;;;;;;5115948;28;20078;-85
2022/10/15 07:02:18;;;;;;;2.22;1.70;;;15.80;99.90;;;;;;5115118;28;20023;-84
2022/10/15 07:04:45;;;;;;;4.50;1.83;;;15.90;99.90;;;;;;5095527;28;20028;-86
2022/10/15 07:07:11;;;;;;;3.03;1.63;;;16.00;99.90;;;;;;5095206;28;20104;-85
2022/10/15 07:09:36;;;;;;;3.60;1.60;;;16.10;99.90;;;;;;5095578;28;20481;-85
2022/10/15 07:12:03;;;;;;;3.78;1.60;;;16.10;99.90;;;;;;5095257;28;20044;-85
2022/10/15 07:14:29;;;;;;;3.05;1.50;;;16.30;99.90;;;;;;5094826;28;20020;-85
2022/10/15 07:16:54;;;;;;;2.17;1.55;;;16.30;99.90;;;;;;5094939;28;20492;-86
2022/10/15 07:19:20;;;;;;;1.48;1.33;;;16.30;99.90;;;;;;5095097;28;20493;-85
2022/10/15 07:21:45;;;;;;;6.47;1.80;;;16.40;99.90;;;;;;5095037;28;20380;-86
2022/10/15 07:24:11;;;;;;;2.42;1.38;;;16.50;99.90;;;;;;5095557;28;20032;-85
2022/10/15 07:26:37;;;;;;;2.38;1.50;;;16.50;99.90;;;;;;5094999;28;20020;-86
2022/10/15 07:29:03;;;;;;;2.20;1.50;;;16.70;99.90;;;;;;5094481;28;20024;-85
2022/10/15 07:31:29;;;;;;;3.85;1.70;;;16.50;99.90;;;;;;5104455;28;20031;-85
2022/10/15 07:33:55;;;;;;;2.92;1.85;;;16.50;99.90;;;;;;5115272;28;20020;-85
2022/10/15 07:36:21;;;;;;;2.53;1.63;;;16.60;99.90;;;;;;5115131;28;20045;-85
2022/10/15 07:38:46;;;;;;;2.70;1.50;;;16.60;99.90;;;;;;5115227;28;20443;-86
2022/10/15 07:41:12;;;;;;;3.13;1.75;;;16.70;99.90;;;;;;5114843;28;20503;-85
2022/10/15 07:43:38;;;;;;;4.45;1.40;;;16.70;99.90;;;;;;5114115;28;20051;-85
2022/10/15 07:46:04;;;;;;;3.45;1.63;;;16.80;99.90;;;;;;5114382;28;20063;-86
2022/10/15 07:48:30;;;;;;;5.15;1.80;;;17.00;99.90;;;;;;5115264;28;20076;-85
2022/10/15 07:51:01;;;;;;;3.85;1.60;;;17.20;99.90;;;;;;5114647;28;20042;-85
2022/10/15 07:53:27;;;;;;;3.38;1.92;;;17.30;99.90;;;;;;5114809;28;20027;-85
2022/10/15 07:55:52;;;;;;;4.88;2.05;;;17.10;99.90;;;;;;5114742;28;20450;-85
2022/10/15 07:58:18;;;;;;;2.97;1.83;;;17.10;99.90;;;;;;5114554;28;20031;-86
2022/10/15 08:00:44;;;;;;;6.55;2.13;;;17.30;99.90;;;;;;5114966;28;20038;-85
2022/10/15 08:03:10;;;;;;;3.60;1.95;;;17.60;99.90;;;;;;5106625;28;20016;-85
2022/10/15 08:05:35;;;;;;;4.70;2.10;;;17.80;99.90;;;;;;5094225;28;20028;-85
2022/10/15 08:08:01;;;;;;;5.80;1.70;;;18.00;99.90;;;;;;5094050;28;20023;-85
2022/10/15 08:10:27;;;;;;;3.70;2.20;;;18.60;99.90;;;;;;5094207;28;20048;-86
2022/10/15 08:12:53;;;;;;;6.53;2.40;;;20.00;99.90;;;;;;5093700;28;20024;-85
2022/10/15 08:15:18;;;;;;;7.68;2.72;;;22.70;99.90;;;;;;5094146;28;20103;-86
2022/10/15 08:17:44;;;;;;;5.38;2.08;;;24.40;99.90;;;;;;5093889;28;20110;-85
2022/10/15 08:20:10;;;;;;;3.80;1.90;;;28.00;99.90;;;;;;5093949;28;20012;-86
2022/10/15 08:22:36;;;;;;;4.32;2.30;;;27.00;99.60;;;;;;5093918;28;20102;-86
2022/10/15 08:25:02;;;;;;;4.70;2.03;;;30.50;99.90;;;;;;5093785;28;20039;-86
2022/10/15 08:27:27;;;;;;;7.97;2.00;;;33.80;98.20;;;;;;5075250;28;20472;-86
2022/10/15 08:29:53;;;;;;;7.07;1.90;;;34.50;94.10;;;;;;5093501;28;20035;-86
2022/10/15 08:32:19;;;;;;;5.32;2.03;;;34.50;92.00;;;;;;5109633;28;20023;-86
2022/10/15 08:34:44;;;;;;;6.30;2.70;;;30.80;88.30;;;;;;5114009;28;20046;-86
2022/10/15 08:37:10;;;;;;;2.83;1.80;;;30.70;90.80;;;;;;5114382;28;20098;-86
2022/10/15 08:39:35;;;;;;;5.20;2.00;;;32.10;89.50;;;;;;5113952;28;20483;-86
2022/10/15 08:42:18;;;;;;;5.30;1.85;;;31.20;85.20;;;;;;5113672;28;20399;-86
2022/10/15 08:44:45;;;;;;;3.42;1.80;;;33.20;90.00;;;;;;5113849;28;20011;-86
2022/10/15 08:47:37;;;;;;;5.30;1.90;;;33.00;88.60;;;;;;5113754;28;20088;-86
2022/10/15 08:50:17;;;;;;;2.30;1.30;;;33.90;84.60;;;;;;5114110;28;20483;-86
2022/10/15 08:52:45;;;;;;;5.75;2.10;;;32.90;80.50;;;;;;5113726;28;20016;-86
2022/10/15 08:55:13;;;;;;;4.43;1.80;;;33.40;82.20;;;;;;5113150;28;20112;-86
2022/10/15 08:58:01;;;;;;;4.05;1.48;;;34.20;78.60;;;;;;5113522;28;20424;-86
2022/10/15 09:00:34;;;;;;;6.05;1.60;;;34.20;76.50;;;;;;5113588;28;20078;-86
2022/10/15 09:03:35;;;;;;;4.43;1.13;;;34.50;75.10;;;;;;5107045;28;20020;-86
2022/10/15 09:06:13;;;;;;;2.53;1.25;;;34.90;76.50;;;;;;4994680;28;20494;-86
2022/10/15 09:08:44;;;;;;;1.85;1.10;;;36.10;71.90;;;;;;5010872;28;20502;-86
2022/10/15 09:11:27;;;;;;;3.33;1.30;;;37.80;68.70;;;;;;5010158;28;20411;-86
2022/10/15 09:13:54;;;;;;;2.00;1.20;;;38.80;66.50;;;;;;5011180;28;20422;-86
2022/10/15 09:16:25;;;;;;;1.40;1.13;;;38.20;62.10;;;;;;5010680;28;20048;-86
2022/10/15 09:18:53;;;;;;;2.13;1.35;;;37.60;59.30;;;;;;5010519;28;20028;-86
2022/10/15 09:21:24;;;;;;;2.90;1.30;;;37.80;59.40;;;;;;5010758;28;20486;-86
2022/10/15 09:23:51;;;;;;;2.10;1.10;;;37.90;56.10;;;;;;5010789;28;20044;-86
2022/10/15 09:26:25;;;;;;;2.17;0.98;;;38.60;57.70;;;;;;5010589;28;20478;-86
2022/10/15 09:29:37;;;;;;;2.30;1.10;;;39.40;56.20;;;;;;5010453;28;20475;-86
2022/10/15 09:32:30;;;;;;;1.40;1.10;;;40.10;54.60;;;;;;4965092;28;20042;-86
2022/10/15 09:35:40;;;;;;;1.92;1.15;;;38.80;51.10;;;;;;4971319;28;20039;-86
2022/10/15 09:38:20;;;;;;;2.72;1.10;;;40.00;51.60;;;;;;4933113;29;20184;-86
2022/10/15 09:41:15;;;;;;;2.63;1.20;;;41.20;49.50;;;;;;4932503;29;20042;-86
2022/10/15 09:43:43;;;;;;;2.63;2.13;;;40.70;49.30;;;;;;4949058;29;20119;-86
2022/10/15 09:46:10;;;;;;;1.52;0.70;;;37.40;45.20;;;;;;4952115;29;20037;-86
2022/10/15 09:48:42;;;;;;;0.88;0.82;;;39.40;44.00;;;;;;4952242;29;20043;-86
2022/10/15 09:51:31;;;;;;;2.47;1.73;;;39.00;43.80;;;;;;4951927;29;20045;-86
2022/10/15 09:54:15;;;;;;;2.50;1.50;;;41.20;42.90;;;;;;4951406;29;20050;-86
2022/10/15 09:57:02;;;;;;;1.63;1.20;;;41.70;42.60;;;;;;4952263;29;20035;-86
2022/10/15 09:59:27;;;;;;;1.83;1.30;;;40.80;40.20;;;;;;4952091;29;20038;-86
2022/10/15 10:02:16;;;;;;;2.53;1.20;;;41.20;37.50;;;;;;4952067;29;20147;-86
2022/10/15 10:04:42;;;;;;;1.25;1.10;;;40.60;37.60;;;;;;4952174;29;20074;-87
2022/10/15 10:07:25;;;;;;;0.95;0.85;;;41.50;34.90;;;;;;4965508;28;20034;-87
2022/10/15 10:09:55;;;;;;;2.80;1.20;;;42.60;36.20;;;;;;4989952;28;20046;-87
2022/10/15 10:12:25;;;;;;;1.83;1.00;;;43.00;33.20;;;;;;4990474;28;20470;-86
2022/10/15 10:15:24;;;;;;;0.98;0.80;;;42.90;31.70;;;;;;5039339;28;20503;-87
2022/10/15 10:17:55;;;;;;;0.98;0.60;;;38.90;30.30;;;;;;5092024;28;20073;-87
2022/10/15 10:20:28;;;;;;;1.90;0.70;;;38.30;30.60;;;;;;5092362;28;20074;-86
2022/10/15 10:22:56;;;;;;;0.80;0.60;;;38.10;31.80;;;;;;5091740;28;20024;-87
2022/10/15 10:25:25;;;;;;;2.42;0.80;;;39.90;30.20;;;;;;5092080;28;20495;-86
2022/10/15 10:28:12;;;;;;;0.70;0.70;;;37.60;28.80;;;;;;5091839;28;20389;-87
2022/10/15 10:30:50;;;;;;;0.73;0.73;;;37.00;42.00;;;;;;5093447;28;20039;-87
2022/10/15 10:33:26;;;;;;;0.77;0.70;;;37.10;29.40;;;;;;5112744;28;20028;-87
2022/10/15 10:35:52;;;;;;;0.50;0.50;;;37.10;29.30;;;;;;5112236;28;20548;-87
2022/10/15 10:38:28;;;;;;;2.65;0.77;;;37.80;26.60;;;;;;5111979;28;20020;-87
2022/10/15 10:40:58;;;;;;;1.05;0.63;;;37.10;27.20;;;;;;5112572;28;20024;-86
2022/10/15 10:43:28;;;;;;;1.25;0.90;;;37.40;27.10;;;;;;5112161;28;20044;-87
2022/10/15 10:46:00;;;;;;;0.82;0.70;;;41.20;26.30;;;;;;5112543;28;20040;-87
2022/10/15 10:48:41;;;;;;;1.05;0.70;;;42.40;25.60;;;;;;5112143;28;20023;-87
2022/10/15 10:51:19;;;;;;;0.70;0.60;;;42.20;26.00;;;;;;5111781;28;20027;-85
2022/10/15 10:53:58;;;;;;;0.98;0.80;;;42.50;24.70;;;;;;5112035;28;20386;-87
2022/10/15 10:56:42;;;;;;;1.38;0.70;;;40.90;22.50;;;;;;5111998;28;20031;-87
2022/10/15 10:59:16;;;;;;;1.55;0.90;;;41.70;24.00;;;;;;5112335;28;20027;-87
2022/10/15 11:01:42;;;;;;;0.60;0.60;;;42.20;23.30;;;;;;5112022;28;20510;-87
2022/10/15 11:04:23;;;;;;;0.85;0.70;;;41.50;20.80;;;;;;5096019;28;20032;-87
2022/10/15 11:07:03;;;;;;;1.65;0.90;;;42.10;21.10;;;;;;5091708;28;20385;-87
2022/10/15 11:09:34;;;;;;;2.10;0.80;;;42.70;20.80;;;;;;5091644;28;20078;-87
2022/10/15 11:12:24;;;;;;;1.75;0.70;;;43.40;20.80;;;;;;5091491;28;20076;-87
2022/10/15 11:15:13;;;;;;;1.85;0.60;;;41.70;19.50;;;;;;5091737;28;20519;-87
2022/10/15 11:18:14;;;;;;;1.08;0.68;;;41.30;19.40;;;;;;5091680;28;20545;-86
2022/10/15 11:20:48;;;;;;;1.45;0.70;;;42.00;17.90;;;;;;5094720;28;20028;-87
2022/10/15 11:23:52;;;;;;;0.68;0.50;;;40.00;19.30;;;;;;5076864;28;20400;-86
2022/10/15 11:26:53;;;;;;;0.77;0.68;;;41.00;17.60;;;;;;5095041;28;20050;-86
2022/10/15 11:29:51;;;;;;;0.60;0.60;;;41.70;18.70;;;;;;5094742;28;20020;-87
2022/10/15 11:32:31;;;;;;;0.63;0.60;;;40.70;18.40;;;;;;5109770;28;20039;-87
2022/10/15 11:35:15;;;;;;;1.00;0.50;;;42.20;16.90;;;;;;5114906;28;20453;-87
2022/10/15 11:38:00;;;;;;;0.75;0.50;;;42.60;23.10;;;;;;5115121;28;20027;-87
2022/10/15 11:40:54;;;;;;;0.95;0.60;;;42.20;16.00;;;;;;5115085;28;20032;-88
2022/10/15 11:43:48;;;;;;;1.17;0.63;;;41.00;15.90;;;;;;5114893;28;20488;-87
2022/10/15 11:46:28;;;;;;;0.60;0.60;;;40.40;15.20;;;;;;5115396;28;20024;-87
2022/10/15 11:49:18;;;;;;;0.80;0.75;;;41.00;14.90;;;;;;5115119;28;20447;-87
2022/10/15 11:52:22;;;;;;;2.22;0.70;;;40.10;15.30;;;;;;5115229;28;20028;-87
2022/10/15 11:55:01;;;;;;;2.22;0.90;;;40.40;15.00;;;;;;5115420;28;20020;-88
2022/10/15 11:57:30;;;;;;;0.70;0.70;;;40.60;14.20;;;;;;5096512;28;20096;-87
2022/10/15 12:00:01;;;;;;;0.55;0.50;;;41.20;13.60;;;;;;5114821;28;20103;-87
2022/10/15 12:02:30;;;;;;;0.60;0.60;;;40.40;13.00;;;;;;5113046;28;20046;-88
2022/10/15 12:05:03;;;;;;;1.27;0.70;;;34.40;11.30;;;;;;5094508;28;20493;-87
2022/10/15 12:07:42;;;;;;;0.65;0.50;;;30.90;15.90;;;;;;5094402;28;20032;-87
2022/10/15 12:10:11;;;;;;;0.60;0.60;;;30.90;16.10;;;;;;5075859;28;20393;-87
2022/10/15 12:12:46;;;;;;;2.10;0.90;;;30.60;15.30;;;;;;5094102;28;20016;-87
2022/10/15 12:15:27;;;;;;;2.33;0.70;;;30.90;16.50;;;;;;5094085;28;20488;-87
2022/10/15 12:18:03;;;;;;;1.13;0.70;;;31.70;18.50;;;;;;5093965;28;20511;-87
2022/10/15 12:20:30;;;;;;;0.70;0.70;;;36.20;18.30;;;;;;5093753;28;20361;-87
2022/10/15 12:22:59;;;;;;;0.70;0.70;;;39.10;17.00;;;;;;5094245;28;20028;-87
2022/10/15 12:25:34;;;;;;;1.55;0.60;;;40.90;15.50;;;;;;5094177;28;20028;-87
2022/10/15 12:28:03;;;;;;;2.25;0.75;;;39.80;15.30;;;;;;5093773;28;20384;-88
2022/10/15 12:30:35;;;;;;;0.50;0.50;;;38.20;14.10;;;;;;5093427;28;20040;-87
2022/10/15 12:33:23;;;;;;;0.90;0.60;;;35.00;22.80;;;;;;5113771;28;20380;-87
2022/10/15 12:36:01;;;;;;;1.45;0.75;;;32.60;14.90;;;;;;5114126;28;20024;-87
2022/10/15 12:38:36;;;;;;;1.20;0.70;;;30.80;16.60;;;;;;5114383;28;20032;-87
2022/10/15 12:41:11;;;;;;;0.77;0.73;;;33.50;19.20;;;;;;5113869;28;20058;-87
2022/10/15 12:43:44;;;;;;;1.98;0.70;;;37.40;17.80;;;;;;5114552;28;20089;-88
2022/10/15 12:46:11;;;;;;;0.60;0.55;;;39.20;26.60;;;;;;5113990;28;20030;-87
2022/10/15 12:48:40;;;;;;;1.73;0.60;;;38.70;15.20;;;;;;5113473;28;20031;-88
2022/10/15 12:51:15;;;;;;;0.95;0.60;;;38.70;16.00;;;;;;5113708;28;20035;-88
2022/10/15 12:53:42;;;;;;;1.38;0.80;;;37.60;11.70;;;;;;5113577;28;20103;-87
2022/10/15 12:56:17;;;;;;;0.68;0.68;;;38.30;15.60;;;;;;5114140;28;20028;-88
2022/10/15 12:58:49;;;;;;;1.40;0.90;;;39.50;11.80;;;;;;5113537;28;20052;-88
2022/10/15 13:01:18;;;;;;;0.88;0.70;;;39.60;15.10;;;;;;5113592;28;20031;-87
2022/10/15 13:03:49;;;;;;;0.80;0.80;;;38.30;15.00;;;;;;5100682;28;20411;-88
2022/10/15 13:06:23;;;;;;;0.88;0.70;;;39.50;12.80;;;;;;5092950;28;20048;-87
2022/10/15 13:08:54;;;;;;;1.65;0.60;;;37.10;13.50;;;;;;5093054;28;20464;-88